Tiempo atmosférico en la estación meteorológica de Güeñes, Bizkaia (208 m.)



Fecha
DESCASC
Temp. máxima en grados centígrados (hora)
DESCASC
Temp. mínima en grados centígrados (hora)
DESCASC
Temp. media en grados centígrados
DESCASC
Racha de viento máxima en m/sg (hora)
DESCASC
Velocidad máxima media en intervalos de 10 minutos(hora)
DESCASC
Precipitaciones diarias en mm
DESCASC
Precipitaciones de 00:00 a 06:00 en mm
DESCASC
Precipitaciones de 06:00 a 12:00 en mm
DESCASC
Precipitaciones de 12:00 a 18:00 en mm
DESCASC
Precipitaciones de 18:00 a 24:00 en mm
DESCASC
16-06-2019 24.1 (15:10) 7.1 (07:00) 15.6 5.83 (20:20) 3.61 (19:50) 0 0 0 0 0
15-06-2019 20.1 (15:20) 9.4 (05:20) 14.8 7.5 (18:00) 2.78 (17:40) 0 0 0 0 0
14-06-2019 14.9 (13:30) 9.7 (07:20) 12.3 5.83 (19:10) 2.5 (21:20) 0 0 0 0 0
13-06-2019 19.3 (14:10) 7.6 (00:00) 13.4 7.5 (16:20) 2.5 (16:40) 0 0 0 0 0
12-06-2019 18.2 (15:10) 7.4 (00:00) 12.8 7.22 (16:20) 3.06 (18:50) 0 0 0 0 0
11-06-2019 14.5 (16:20) 8.2 (00:00) 11.3 12.22 (23:20) 6.67 (13:10) 13.1 3.9 5.9 1.9 1.4
10-06-2019 16.2 (15:10) 8.1 (00:00) 12.2 5.83 (17:10) 2.5 (16:50) 1.4 0 0 0 1.4
09-06-2019 17.4 (14:50) 11 (00:00) 14.2 7.5 (19:30) 3.33 (19:30) 0.1 0 0 0 0.1
08-06-2019 20.1 (15:20) 7.6 (00:00) 13.9 8.61 (17:00) 3.33 (17:00) 0 0 0 0 0
07-06-2019 19.4 (00:20) 11 (00:00) 15.2 20.83 (06:00) 10.83 (06:30) 0.4 0.4 0 0 0
06-06-2019 24.5 (21:00) 8.2 (00:00) 16.3 17.78 (22:10) 9.72 (22:10) 0.6 0.6 0 0 0
05-06-2019 16 (16:10) 9.9 (00:00) 12.9 11.39 (15:30) 7.22 (13:10) 9.5 3.6 5.8 0.1 0
04-06-2019 24.4 (12:30) 11 (00:00) 17.7 12.5 (11:10) 7.22 (11:10) 2.3 0 0 0 2.3
03-06-2019 23.6 (16:10) 10.9 (00:00) 17.3 5.83 (16:10) 2.78 (14:30) 0 0 0 0 0
02-06-2019 29.4 (13:50) 13.3 (00:00) 21.3 7.78 (15:20) 3.06 (16:50) 0 0 0 0 0
01-06-2019 32.6 (16:50) 12.9 (00:00) 22.7 5.56 (17:20) 2.5 (14:30) 0 0 0 0 0
31-05-2019 29.3 (15:30) 10 (00:00) 19.6 5.28 (16:50) 2.5 (17:30) 0 0 0 0 0
30-05-2019 25.5 (16:30) 8.1 (00:00) 16.8 5 (16:40) 2.22 (16:30) 0 0 0 0 0
29-05-2019 19.1 (18:00) 10.3 (00:00) 14.7 7.22 (15:20) 3.89 (16:20) 2.2 0 2.2 0 0
28-05-2019 16.2 (18:20) 9.5 (00:00) 12.9 10.28 (15:10) 5.56 (19:00) 2 0 2 0 0
27-05-2019 15.3 (15:50) 11.2 (00:00) 13.3 7.22 (18:10) 2.78 (18:10) 0.9 0 0 0.8 0.1
26-05-2019 16.4 (14:40) 11.1 (00:00) 13.8 5.28 (17:40) 2.22 (03:20) 1.4 0 1.3 0.1 0
25-05-2019 16 (15:40) 10.7 (00:00) 13.3 8.33 (14:10) 3.89 (15:00) 2 0 2 0 0
24-05-2019 14.2 (15:00) 11.1 (00:00) 12.7 9.17 (15:20) 5 (16:10) 4.4 0.1 2.4 1.9 0
23-05-2019 20.9 (13:30) 10.3 (00:00) 15.6 7.78 (19:50) 3.61 (18:50) 1.4 0 0 0 1.4
22-05-2019 23.5 (15:50) 6.6 (00:00) 15 5.28 (16:40) 2.22 (16:20) 0 0 0 0 0
21-05-2019 18.9 (14:40) 6.7 (05:10) 12.8 6.67 (17:00) 3.06 (20:10) 0 0 0 0 0

Gráficas

Temp. máximas Temp. mínimas Temp. medias Precipitaciones Rachas de viento máximas Velocidades máximas media en intervalos de 10 minutos

Datos horarios

Fecha y hora oficial Temperatura (ºC) Velocidad del viento (km/h) Dirección del viento Racha (km/h) Dirección de racha Precipitación (mm) Presión (hPa) Tendencia (hPa) Humedad (%)
2019-06-19 23:00:00 15.9 0 Calma 8 Noroeste 0 992.5 1.4 81
2019-06-19 22:00:00 15.9 6 Oeste 13 Oeste 0 992 1.3 81
2019-06-19 21:00:00 15.9 7 Oeste 21 Norte 0 991.5 1.3 81
2019-06-19 20:00:00 16.3 8 Oeste 21 Norte 0 991.1 1.2 77
2019-06-19 19:00:00 17.1 3 Noroeste 22 Noroeste 0 990.7 0.7 73
2019-06-19 18:00:00 19.6 3 Noroeste 14 Oeste 0 990.2 0.7 66
2019-06-19 17:00:00 20.2 8 Noroeste 15 Noroeste 0 989.9 0.6 63
2019-06-19 16:00:00 19.8 4 Norte 14 Norte 0 990 1.3 61
2019-06-19 15:00:00 20.7 4 Noroeste 15 Oeste 0 989.5 1.4 60
2019-06-19 14:00:00 20.2 5 Noroeste 19 Noroeste 0 989.3 1.5 60
2019-06-19 13:00:00 22.4 7 Noroeste 23 Oeste 0 988.7 1 51
2019-06-19 12:00:00 24.5 8 Oeste 30 Sudoeste 0 988.1 0.6 43
2019-06-19 11:00:00 22.4 19 Sudoeste 35 Sur 0 987.8 0.4 44
2019-06-19 10:00:00 21.8 2 Oeste 10 Oeste 0 987.7 0.4 49
2019-06-19 09:00:00 19.1 0 Calma 19 Sudoeste 0 987.5 0.2 61
2019-06-19 08:00:00 16.3 0 Calma 13 Nordeste 0 987.4 0 78
2019-06-19 07:00:00 13.7 3 Este 13 Este 0 987.3 -0.1 91
2019-06-19 06:00:00 13.3 0 Calma 6 Oeste 0 987.3 0 91
2019-06-19 05:00:00 13.3 0 Calma 4 Nordeste 0 987.4 0 91
2019-06-19 04:00:00 13.4 0 Calma 8 Este 0 987.4 -0.4 91
2019-06-19 03:00:00 13.7 2 Sur 8 Sur 0 987.3 -0.5 90
2019-06-19 02:00:00 14.2 2 Oeste 5 Este 0 987.4 -0.1 88
2019-06-19 01:00:00 15.1 0 Calma 4 Este 0 987.8 1.3 87
2019-06-19 00:00:00 15.6 3 Nordeste 5 Sur 0 987.8 1.9 84
2019-06-18 23:00:00 16.5 0 Calma 9 Este 0 987.5 2.2 79
2019-06-18 22:00:00 17.4 6 Este 11 Este 0 986.5 1.8 75
2019-06-18 21:00:00 18.8 4 Sudeste 10 Oeste 0 985.9 2.6 69
2019-06-18 20:00:00 20.6 4 Norte 16 Oeste 0 985.3 2.9 61
2019-06-18 19:00:00 21.7 3 Nordeste 26 Norte 0 984.7 1.9 55
2019-06-18 18:00:00 24.9 6 Noroeste 29 Nordeste 0 983.3 -0.1 43
2019-06-18 17:00:00 32.4 12 Sudoeste 34 Sudoeste 0 982.4 -1.6 17
2019-06-18 16:00:00 31.3 16 Oeste 37 Sudoeste 0 982.8 -1.5 17
2019-06-18 15:00:00 31.2 3 Sudeste 59 Sudoeste 0 983.4 -1.5 17
2019-06-18 14:00:00 30.4 14 Oeste 43 Sudoeste 0 984 -1.4 19
2019-06-18 13:00:00 29.1 9 Sudoeste 33 Sudoeste 0 984.3 -1.7 23
2019-06-18 12:00:00 26.1 0 Calma 9 Sudoeste 0 984.9 -1.9 42
2019-06-18 11:00:00 22.7 2 Oeste 6 Oeste 0 985.4 -1.5 63
2019-06-18 10:00:00 17.5 0 Calma 4 Noroeste 0 986 -0.6 86
2019-06-18 09:00:00 15.9 0 Calma 5 Este 0 986.8 0.2 91
2019-06-18 08:00:00 15.3 0 Calma 2 Este 0 986.9 0.1 91
2019-06-18 07:00:00 14.2 0 Calma 6 Nordeste 0 986.6 -1.3 91
2019-06-18 06:00:00 14.5 3 Este 6 Sur 0 986.6 -1.7 91
2019-06-18 05:00:00 14.7 3 Oeste 9 Este 0 986.8 -2.1 90
2019-06-18 04:00:00 15.5 2 Este 10 Sur 0 987.9 -1.4 88
2019-06-18 03:00:00 15.5 3 Este 9 Este 0 988.3 -1.5 87
2019-06-18 02:00:00 16 5 Este 9 Sur 0 988.9 -0.5 87
2019-06-18 01:00:00 15.7 7 Sudoeste 14 Sudoeste 0 989.3 -0.1 87
2019-06-18 00:00:00 15.9 3 Sudeste 9 Sudeste 0 989.8 0.6 84
2019-06-17 23:00:00 16.1 2 Sudeste 9 Sur 0 989.4 0.7 84
2019-06-17 22:00:00 16.2 4 Este 16 Este 0 989.4 1.3 83
2019-06-17 21:00:00 17.5 0 Calma 9 Nordeste 0 989.2 1.4 78
2019-06-17 20:00:00 18.7 4 Oeste 12 Oeste 0 988.7 1.3 73
2019-06-17 19:00:00 20.6 3 Nordeste 15 Sudoeste 0 988.1 0.7 65
2019-06-17 18:00:00 22.7 5 Oeste 21 Sudoeste 0 987.8 0.1 57
2019-06-17 17:00:00 26.3 5 Norte 19 Nordeste 0 987.4 -1.3 47
2019-06-17 16:00:00 26.7 11 Nordeste 24 Nordeste 0 987.4 -2.3 43
2019-06-17 15:00:00 27.5 11 Nordeste 22 Nordeste 0 987.7 -3 41
2019-06-17 14:00:00 27.8 4 Sudeste 14 Nordeste 0 988.7 -2.6 37
2019-06-17 13:00:00 25.4 6 Nordeste 13 Nordeste 0 989.7 -2.1 45
2019-06-17 12:00:00 22.6 2 Este 8 Nordeste 0 990.7 -1.4 54
2019-06-17 11:00:00 18.7 4 Oeste 8 Oeste 0 991.3 -1.2 70
2019-06-17 10:00:00 14.8 3 Oeste 6 Este 0 991.8 -0.7 87
2019-06-17 09:00:00 13.1 3 Este 5 Este 0 992.1 -0.4 91
2019-06-17 08:00:00 12.8 0 Calma 3 Este 0 992.5 -0.1 91
2019-06-17 07:00:00 12.2 0 Calma 3 Norte 0 992.5 -0.6 91
2019-06-17 06:00:00 12.4 0 Calma 5 Este 0 992.5 -1.1 91
2019-06-17 05:00:00 12.5 3 Sudoeste 3 Sudoeste 0 992.6 -1.4 91
2019-06-17 04:00:00 12.6 0 Calma 3 Norte 0 993.1 -1 90
2019-06-17 03:00:00 12.9 0 Calma 5 Sudeste 0 993.6 -0.6 89
2019-06-17 02:00:00 13.6 3 Nordeste 6 Nordeste 0 994 -0.3 86
2019-06-17 01:00:00 14.2 4 Nordeste 6 Nordeste 0 994.1 0.2 84
2019-06-17 00:00:00 15.1 2 Nordeste 6 Este 0 994.2 0.8 79
2019-06-16 23:00:00 15.6 0 Calma 5 Este 0 994.3 1.4 77
2019-06-16 22:00:00 16.1 0 Calma 19 Norte 0 993.9 1.6 74
2019-06-16 21:00:00 17.1 5 Noroeste 21 Oeste 0 993.4 1.3 70
2019-06-16 20:00:00 18.5 10 Oeste 20 Oeste 0 992.9 1.1 66
2019-06-16 19:00:00 21.6 7 Oeste 18 Oeste 0 992.3 -0.1 54
2019-06-16 18:00:00 22.9 4 Norte 19 Nordeste 0 992.1 -0.8 49
2019-06-16 17:00:00 23.8 7 Nordeste 21 Nordeste 0 991.8 -2 47
2019-06-16 16:00:00 23.4 8 Nordeste 19 Nordeste 0 992.4 -2.2 45
2019-06-16 15:00:00 23.7 10 Nordeste 17 Norte 0 992.9 -2.4 42
2019-06-16 14:00:00 22.2 6 Nordeste 13 Norte 0 993.8 -2.1 39
2019-06-16 13:00:00 20.5 6 Nordeste 13 Nordeste 0 994.6 -1.8 43
2019-06-16 12:00:00 18.9 4 Este 11 Este 0 995.3 -1.5 50
2019-06-16 11:00:00 16.4 3 Sudeste 10 Sur 0 995.9 -0.7 62
2019-06-16 10:00:00 12.6 0 Calma 6 Norte 0 996.4 -0.3 88
2019-06-16 09:00:00 9 2 Nordeste 5 Este 0 996.8 0.1 92
2019-06-16 08:00:00 7.4 0 Calma 2 Este 0 996.6 -0.3 92
2019-06-16 07:00:00 7.1 0 Calma 0 Calma 0 996.7 -0.7 92
2019-06-16 06:00:00 7.7 0 Calma 3 Oeste 0 996.7 -1.1 91
2019-06-16 05:00:00 7.8 0 Calma 0 Calma 0 996.9 -1.3 91
2019-06-16 04:00:00 8.6 0 Calma 3 Norte 0 997.4 -1 90
2019-06-16 03:00:00 9.4 0 Calma 0 Calma 0 997.8 -0.8 89
2019-06-16 02:00:00 9.9 0 Calma 3 Noroeste 0 998.2 -0.3 88
2019-06-16 01:00:00 11.1 0 Calma 3 Noroeste 0 998.4 0.5 84
2019-06-16 00:00:00 11.6 0 Calma 6 Sudoeste 0 998.6 1 80
2019-06-15 23:00:00 12.4 2 Oeste 6 Oeste 0 998.5 1.2 73
2019-06-15 22:00:00 13.8 0 Calma 9 Noroeste 0 997.9 1.1 65
2019-06-15 21:00:00 15 0 Calma 14 Norte 0 997.6 1.2 59
2019-06-15 20:00:00 15.8 5 Noroeste 22 Noroeste 0 997.3 1.2 53
2019-06-15 19:00:00 17.8 7 Norte 24 Norte 0 996.8 0.8 47
2019-06-15 18:00:00 18.4 8 Norte 27 Norte 0 996.4 0.4 45
2019-06-15 17:00:00 18.6 9 Norte 22 Norte 0 996.1 0.3 44
2019-06-15 16:00:00 18.6 8 Norte 20 Norte 0 996 0 43
2019-06-15 15:00:00 19.4 5 Noroeste 22 Noroeste 0 996 0.3 47
2019-06-15 14:00:00 18.8 8 Norte 18 Nordeste 0 995.8 0 45
2019-06-15 13:00:00 18 4 Norte 12 Noroeste 0 996 0.2 49
2019-06-15 12:00:00 17.3 2 Noroeste 7 Norte 0 995.7 0.4 54
2019-06-15 11:00:00 14.9 0 Calma 8 Nordeste 0 995.8 1.1 70
2019-06-15 10:00:00 12 0 Calma 5 Oeste 0 995.8 1.2 93
2019-06-15 09:00:00 10.6 0 Calma 5 Oeste 0 995.3 1.2 93
2019-06-15 08:00:00 9.9 0 Calma 5 Nordeste 0 994.7 0.4 92
2019-06-15 07:00:00 9.7 0 Calma 4 Oeste 0 994.6 0.7 92
2019-06-15 06:00:00 9.6 0 Calma 5 Oeste 0 994.1 0.5 92
2019-06-15 05:00:00 9.7 0 Calma 5 Este 0 994.3 0.7 91
2019-06-15 04:00:00 10 2 Sur 4 Noroeste 0 993.9 0.5 91
2019-06-15 03:00:00 10.6 0 Calma 3 Sudoeste 0 993.6 0.6 89
2019-06-15 02:00:00 11.5 0 Calma 4 Este 0 993.6 1.2 87
2019-06-15 01:00:00 11.8 0 Calma 5 Sudoeste 0 993.4 2 84
2019-06-15 00:00:00 12.3 3 Sudoeste 7 Sudoeste 0 993 2 84
2019-06-14 23:00:00 12.6 3 Sudoeste 8 Noroeste 0 992.4 2.3 83
2019-06-14 22:00:00 12.8 3 Sudoeste 20 Sur 0 991.4 1.7 80
2019-06-14 21:00:00 13 6 Sudoeste 19 Oeste 0 991 1.6 81
2019-06-14 20:00:00 13.5 5 Oeste 21 Oeste 0 990.1 1.1 80
2019-06-14 19:00:00 13.5 8 Oeste 18 Oeste 0 989.7 0.6 80
2019-06-14 18:00:00 14 5 Noroeste 16 Noroeste 0 989.4 0.6 76
2019-06-14 17:00:00 14.6 4 Norte 19 Norte 0 989 0.3 75
2019-06-14 16:00:00 14.2 5 Noroeste 16 Norte 0 989.1 0.5 76
2019-06-14 15:00:00 14.2 5 Noroeste 15 Noroeste 0 988.8 0.1 76
2019-06-14 14:00:00 14.4 4 Noroeste 14 Norte 0 988.7 0.1 72
2019-06-14 13:00:00 14.6 4 Oeste 8 Sudoeste 0 988.6 -0.1 70
2019-06-14 12:00:00 14.3 2 Oeste 7 Noroeste 0 988.7 0 71
2019-06-14 11:00:00 13.5 0 Calma 6 Sudoeste 0 988.6 -0.1 76
2019-06-14 10:00:00 12.7 4 Oeste 6 Noroeste 0 988.7 0.1 90
2019-06-14 09:00:00 11.2 0 Calma 4 Noroeste 0 988.7 0.2 91
2019-06-14 08:00:00 10.2 0 Calma 5 Oeste 0 988.7 0.1 91
2019-06-14 07:00:00 10 0 Calma 3 Sur 0 988.6 -0.4 91
2019-06-14 06:00:00 10.5 0 Calma 7 Oeste 0 988.5 -0.8 91
2019-06-14 05:00:00 11.2 0 Calma 4 Nordeste 0 988.6 -1.4 88
2019-06-14 04:00:00 11.8 0 Calma 2 Norte 0 989 -1.4 87
2019-06-14 03:00:00 11.8 0 Calma 5 Oeste 0 989.3 -1.1 87
2019-06-14 02:00:00 12 3 Oeste 5 Noroeste 0 990 -0.2 86
2019-06-14 01:00:00 12.1 0 Calma 4 Oeste 0 990.4 1 85
2019-06-14 00:00:00 12.1 0 Calma 7 Oeste 0 990.4 1.8 84
2019-06-13 23:00:00 12.3 0 Calma 6 Noroeste 0 990.2 2.1 83
2019-06-13 22:00:00 12.3 6 Oeste 15 Oeste 0 989.4 1.9 81
2019-06-13 21:00:00 12.6 7 Oeste 15 Noroeste 0 988.6 1.4 83
2019-06-13 20:00:00 12.8 6 Oeste 20 Oeste 0 988.1 1.5 80
2019-06-13 19:00:00 13.5 9 Oeste 19 Oeste 0 987.5 1.5 74
2019-06-13 18:00:00 13.7 4 Noroeste 23 Norte 0 987.2 1.2 71
2019-06-13 17:00:00 14.2 6 Norte 27 Norte 0 986.6 0.6 69
2019-06-13 16:00:00 16.4 5 Noroeste 21 Norte 0 986 -0.5 63
2019-06-13 15:00:00 17.7 6 Noroeste 21 Norte 0 986 -1.2 60
2019-06-13 14:00:00 19.1 5 Nordeste 14 Nordeste 0 986 -1.6 53
2019-06-13 13:00:00 18.4 4 Este 13 Este 0 986.5 -1.2 51
2019-06-13 12:00:00 16.5 5 Nordeste 15 Norte 0 987.2 -0.7 54
2019-06-13 11:00:00 14.4 3 Sudoeste 7 Sudoeste 0 987.6 -0.3 67
2019-06-13 10:00:00 11.8 0 Calma 6 Oeste 0 987.7 -0.3 92
2019-06-13 09:00:00 9.4 0 Calma 4 Oeste 0 987.9 0 92
2019-06-13 08:00:00 8.3 0 Calma 4 Sur 0 987.9 -0.1 92
2019-06-13 07:00:00 7.7 0 Calma -- -- 0 988 -0.2 92
2019-06-13 06:00:00 7.9 0 Calma 0 Calma 0 987.9 -0.7 91
2019-06-13 05:00:00 8.4 0 Calma 3 Oeste 0 988 -1.2 91
2019-06-13 04:00:00 9.1 0 Calma 4 Oeste 0 988.2 -1.5 89
2019-06-13 03:00:00 9.5 0 Calma 4 Oeste 0 988.6 -1.5 87
2019-06-13 02:00:00 10.1 0 Calma 4 Este 0 989.2 -1.1 84
2019-06-13 01:00:00 10.9 0 Calma 7 Sudeste 0 989.7 -0.2 80
2019-06-13 00:00:00 11.5 4 Sudeste 12 Este 0 990.1 0.4 77
2019-06-12 23:00:00 12.7 0 Calma 4 Nordeste 0 990.3 0.7 69
2019-06-12 22:00:00 13.4 0 Calma 12 Nordeste 0 989.9 0.7 64
2019-06-12 21:00:00 13.9 3 Norte 15 Norte 0 989.7 0.5 59
2019-06-12 20:00:00 14.4 4 Norte 16 Norte 0 989.6 0.3 58
2019-06-12 19:00:00 14.8 6 Norte 24 Norte 0 989.2 -0.3 55
2019-06-12 18:00:00 15.7 9 Norte 22 Norte 0 989.2 -0.4 52
2019-06-12 17:00:00 16.6 8 Noroeste 26 Norte 0 989.3 -0.7 49
2019-06-12 16:00:00 17.9 7 Noroeste 18 Norte 0 989.5 -0.7 48
2019-06-12 15:00:00 18 3 Oeste 15 Norte 0 989.6 -0.9 47
2019-06-12 14:00:00 16.5 9 Oeste 18 Oeste 0 990 -0.1 46
2019-06-12 13:00:00 15.2 5 Nordeste 13 Nordeste 0 990.2 0.1 45
2019-06-12 12:00:00 14.6 4 Noroeste 11 Noroeste 0 990.5 0.4 46
2019-06-12 11:00:00 14.3 4 Noroeste 11 Oeste 0 990.1 0.3 46
2019-06-12 10:00:00 12.2 0 Calma 6 Sur 0 990.1 0.5 67
2019-06-12 09:00:00 9.1 4 Sur 8 Sur 0 990.1 0.6 83
2019-06-12 08:00:00 8.5 0 Calma 8 Este 0 989.8 0.3 78
2019-06-12 07:00:00 7.5 0 Calma 9 Este 0 989.6 -0.2 83
2019-06-12 06:00:00 7.6 5 Este 9 Este 0 989.5 -0.9 82
2019-06-12 05:00:00 7.9 2 Este 10 Noroeste 0 989.5 -1.3 80
2019-06-12 04:00:00 8.3 3 Nordeste 7 Sudoeste 0 989.8 -1.2 81
2019-06-12 03:00:00 9.2 0 Calma 9 Oeste 0 990.4 -1 74
2019-06-12 02:00:00 9.7 7 Oeste 15 Oeste 0 990.8 -1.1 74
2019-06-12 01:00:00 9.8 5 Sudoeste 13 Oeste 0 991 -0.8 75
2019-06-12 00:00:00 10.3 8 Oeste 44 Noroeste 0.1 991.4 -0.8 76
2019-06-11 23:00:00 10 8 Oeste 21 Oeste 0 991.9 0 85
2019-06-11 22:00:00 10.3 2 Noroeste 33 Oeste 0.2 991.8 -0.3 80
2019-06-11 21:00:00 11.1 17 Oeste 31 Noroeste 0.1 992.2 0.1 73
2019-06-11 20:00:00 12 14 Oeste 36 Sudoeste 0 991.9 -0.2 71
2019-06-11 19:00:00 11.5 22 Oeste 42 Oeste 1 992.1 -0.2 73
2019-06-11 18:00:00 13.3 19 Oeste 31 Oeste 0.4 992.1 -0.1 65
2019-06-11 17:00:00 12.5 19 Oeste 37 Oeste 0 992.1 -0.3 69
2019-06-11 16:00:00 14 11 Oeste 28 Noroeste 0.9 992.3 -0.1 80
2019-06-11 15:00:00 12.5 15 Oeste 37 Oeste 0.5 992.2 -0.2 76
2019-06-11 14:00:00 11.9 24 Oeste 42 Oeste 0.1 992.4 0.6 66
2019-06-11 13:00:00 11.7 16 Oeste 32 Noroeste 0 992.4 0.7 68
2019-06-11 12:00:00 11.3 14 Oeste 32 Oeste 0 992.4 1.2 72
2019-06-11 11:00:00 10.9 15 Oeste 25 Oeste 0.5 991.8 0.7 81
2019-06-11 10:00:00 10.2 0 Calma 10 Sudoeste 0.1 991.7 0.8 87
2019-06-11 09:00:00 8.4 8 Oeste 13 Sudoeste 2.1 991.2 0.3 91
2019-06-11 08:00:00 8.2 10 Sudoeste 22 Sudoeste 3 991.1 0 92
2019-06-11 07:00:00 9.2 0 Calma 4 Este 0.2 990.9 -0.6 92
2019-06-11 06:00:00 9.3 0 Calma 6 Sur 0.6 990.9 -1 92
2019-06-11 05:00:00 9.4 0 Calma 4 Este 1.1 991.1 -1 92
2019-06-11 04:00:00 9.6 3 Nordeste 5 Nordeste 0.1 991.5 -1.2 91
2019-06-11 03:00:00 9.4 3 Sur 5 Sur 0.5 991.9 -1.1 91
2019-06-11 02:00:00 9.5 3 Oeste 5 Oeste 0.1 992.1 -1.2 91
2019-06-11 01:00:00 9.7 0 Calma 7 Sur 1.5 992.7 -0.5 91
2019-06-11 00:00:00 10.1 0 Calma 6 Sudoeste 0.7 993 -0.4 89
2019-06-10 23:00:00 11 3 Oeste 5 Oeste 0.6 993.3 -0.2 84
2019-06-10 22:00:00 11.7 0 Calma 9 Norte 0.1 993.2 -0.4 73
2019-06-10 21:00:00 12.6 3 Noroeste 11 Noroeste 0 993.4 -0.5 64
2019-06-10 20:00:00 13 3 Norte 15 Norte 0 993.5 -0.8 61
2019-06-10 19:00:00 13.6 0 Calma 12 Oeste 0 993.6 -0.7 61
2019-06-10 18:00:00 13.4 6 Norte 21 Oeste 0 993.9 -0.8 59
2019-06-10 17:00:00 14.8 8 Oeste 17 Noroeste 0 994.3 -0.6 62
2019-06-10 16:00:00 15.1 5 Norte 14 Norte 0 994.3 -1 56
2019-06-10 15:00:00 15.8 0 Calma 13 Norte 0 994.7 -0.7 54
2019-06-10 14:00:00 15.2 0 Calma 12 Sudeste 0 994.9 -0.8 53
2019-06-10 13:00:00 14.2 3 Oeste 10 Nordeste 0 995.3 -0.8 57
2019-06-10 12:00:00 13.9 3 Nordeste 11 Nordeste 0 995.4 -0.7 59
2019-06-10 11:00:00 12.9 3 Este 9 Este 0 995.7 -0.2 69
2019-06-10 10:00:00 10.8 0 Calma 9 Este 0 996.1 0.4 92
2019-06-10 09:00:00 9.6 0 Calma 5 Sudoeste 0 996.1 0.7 93
2019-06-10 08:00:00 8.4 4 Oeste 8 Oeste 0 995.9 0 92
2019-06-10 07:00:00 8.4 4 Oeste 6 Oeste 0 995.7 -0.4 92
2019-06-10 06:00:00 8.7 0 Calma 8 Oeste 0 995.4 -1.3 91
2019-06-10 05:00:00 9.1 5 Oeste 8 Oeste 0 995.9 -1.3 91
2019-06-10 04:00:00 10 2 Oeste 5 Oeste 0 996.1 -1.2 89
2019-06-10 03:00:00 10.5 4 Oeste 8 Oeste 0 996.7 -1.1 89
2019-06-10 02:00:00 11 0 Calma 7 Noroeste 0 997.2 0 90
2019-06-10 01:00:00 11.1 0 Calma 8 Oeste 0 997.3 0.8 91
2019-06-10 00:00:00 11.1 6 Oeste 12 Sudoeste 0.1 997.8 1.2 91
2019-06-09 23:00:00 11.2 6 Oeste 12 Oeste 0 997.2 1.3 91
2019-06-09 22:00:00 11.3 8 Oeste 13 Sudoeste 0 996.5 1.2 91
2019-06-09 21:00:00 11.6 7 Oeste 20 Oeste 0 996.6 1.8 90
2019-06-09 20:00:00 12.2 11 Noroeste 27 Oeste 0 995.9 1.7 86
2019-06-09 19:00:00 12.6 10 Noroeste 26 Norte 0 995.3 1.3 85
2019-06-09 18:00:00 13.3 8 Noroeste 22 Noroeste 0 994.8 1 86
2019-06-09 17:00:00 15.1 9 Noroeste 24 Noroeste 0 994.2 0.5 70
2019-06-09 16:00:00 16.1 7 Noroeste 25 Noroeste 0 994 0.4 66
2019-06-09 15:00:00 16.8 8 Norte 18 Oeste 0 993.8 0 66
2019-06-09 14:00:00 15.9 5 Noroeste 17 Norte 0 993.7 0 68
2019-06-09 13:00:00 15.8 4 Nordeste 13 Norte 0 993.6 -0.3 72
2019-06-09 12:00:00 15 3 Oeste 11 Oeste 0 993.8 -0.1 71
2019-06-09 11:00:00 15.7 5 Oeste 12 Oeste 0 993.7 -0.2 72
2019-06-09 10:00:00 14.3 3 Oeste 14 Oeste 0 993.9 0.2 76
2019-06-09 09:00:00 13 6 Oeste 15 Oeste 0 993.9 0 83
2019-06-09 08:00:00 12 9 Oeste 17 Oeste 0 993.9 -0.3 85
2019-06-09 07:00:00 11.8 11 Oeste 18 Oeste 0 993.7 -1 87
2019-06-09 06:00:00 11.9 5 Sudoeste 9 Sudoeste 0 993.9 -1.6 86
2019-06-09 05:00:00 12.2 4 Oeste 10 Sudoeste 0 994.2 -1.6 82
2019-06-09 04:00:00 12.4 5 Oeste 12 Oeste 0 994.7 -1.8 80
2019-06-09 03:00:00 12.5 8 Oeste 15 Oeste 0 995.5 -1.4 78
2019-06-09 02:00:00 12.6 8 Oeste 15 Oeste 0 995.8 -1.3 78
2019-06-09 01:00:00 12.6 7 Oeste 18 Noroeste 0 996.5 0.1 77
2019-06-09 00:00:00 13 6 Noroeste 20 Oeste 0 996.9 0.6 77
2019-06-08 23:00:00 13.2 6 Noroeste 15 Oeste 0 997.1 0.6 74
2019-06-08 22:00:00 13.6 3 Noroeste 15 Noroeste 0 996.4 0.5 73
2019-06-08 21:00:00 14.1 7 Noroeste 19 Norte 0 996.3 0.2 68
2019-06-08 20:00:00 15.3 4 Norte 16 Nordeste 0 996.5 0.6 62
2019-06-08 19:00:00 16.3 5 Norte 19 Norte 0 995.9 -0.1 58
2019-06-08 18:00:00 16.3 5 Norte 26 Noroeste 0 996.1 -0.5 56
2019-06-08 17:00:00 17 12 Norte 31 Norte 0 995.9 -1.7 53
2019-06-08 16:00:00 18.3 11 Norte 26 Norte 0 996 -2.2 47
2019-06-08 15:00:00 19.3 4 Nordeste 21 Nordeste 0 996.6 -2.3 46
2019-06-08 14:00:00 18.4 7 Nordeste 17 Norte 0 997.6 -2 46
2019-06-08 13:00:00 17.5 8 Norte 17 Nordeste 0 998.2 -2 48
2019-06-08 12:00:00 17 6 Este 14 Este 0 998.9 -1.3 48
2019-06-08 11:00:00 14.9 2 Nordeste 10 Este 0 999.6 -0.7 57
2019-06-08 10:00:00 11.9 2 Oeste 5 Oeste 0 1000.2 0.3 77
2019-06-08 09:00:00 9.9 0 Calma 5 Oeste 0 1000.2 0.7 87
2019-06-08 08:00:00 8.1 0 Calma 3 Oeste 0 1000.3 0.8 88
2019-06-08 07:00:00 7.7 0 Calma 2 Norte 0 999.9 0.4 88
2019-06-08 06:00:00 8 0 Calma 3 Este 0 999.5 0.1 84
2019-06-08 05:00:00 8.8 0 Calma 4 Este 0 999.5 0 82
2019-06-08 04:00:00 9.5 2 Nordeste 4 Este 0 999.5 0.3 78
2019-06-08 03:00:00 9.7 0 Calma 4 Nordeste 0 999.4 0.6 77
2019-06-08 02:00:00 9.9 2 Este 5 Nordeste 0 999.5 1.2 73
2019-06-08 01:00:00 10.6 0 Calma 6 Sur 0 999.2 1.6 65
2019-06-08 00:00:00 11.1 3 Sur 5 Sudoeste 0 998.8 1.9 59
2019-06-07 23:00:00 12.4 0 Calma 10 Norte 0 998.3 2.1 53
2019-06-07 22:00:00 13.3 5 Norte 15 Norte 0 997.6 2.3 49
2019-06-07 21:00:00 14.1 5 Noroeste 26 Noroeste 0 996.9 2.3 49
2019-06-07 20:00:00 15.2 7 Noroeste 27 Noroeste 0 996.2 2.4 48
2019-06-07 19:00:00 15 16 Oeste 30 Noroeste 0 995.3 2.4 48
2019-06-07 18:00:00 15.5 12 Noroeste 27 Noroeste 0 994.6 2.9 49
2019-06-07 17:00:00 16.1 10 Noroeste 27 Noroeste 0 993.8 2.8 49
2019-06-07 16:00:00 16.7 10 Noroeste 36 Noroeste 0 992.9 3 46
2019-06-07 15:00:00 17.6 13 Noroeste 30 Oeste 0 991.7 2.7 44
2019-06-07 14:00:00 18.4 9 Noroeste 27 Oeste 0 991 3.2 43
2019-06-07 13:00:00 16.7 3 Noroeste 29 Sur 0 989.9 3.1 42
2019-06-07 12:00:00 15.2 17 Sudoeste 37 Sudoeste 0 989 3.3 42
2019-06-07 11:00:00 15.5 18 Sur 39 Sur 0 987.8 4.1 43
2019-06-07 10:00:00 14.4 16 Sudoeste 42 Sudoeste 0 986.8 4.5 45
2019-06-07 09:00:00 13.8 9 Sudoeste 55 Sudoeste 0 985.7 3.7 47
2019-06-07 08:00:00 13.1 28 Sudoeste 68 Sudoeste 0 983.7 2.6 46
2019-06-07 07:00:00 13 31 Sudoeste 67 Sudoeste 0 982.3 1.5 46
2019-06-07 06:00:00 13.3 31 Sudoeste 75 Sudoeste 0.3 982 1.4 46
2019-06-07 05:00:00 13.5 12 Sur 37 Sudoeste 0 981.1 0.4 48
2019-06-07 04:00:00 13.2 6 Sur 33 Sudoeste 0 980.8 0.2 51
2019-06-07 03:00:00 13 3 Sudoeste 51 Sur 0.1 980.6 2.9 53
2019-06-07 02:00:00 13.4 12 Sudoeste 65 Sudoeste 0 980.7 3.3 51
2019-06-07 01:00:00 15 24 Sudoeste 69 Oeste 0 980.6 3.7 50
2019-06-07 00:00:00 19.2 2 Este 26 Sudeste 0 977.7 2 42
2019-06-06 23:00:00 17.8 6 Sudeste 64 Sudoeste 0 977.4 1.8 46
2019-06-06 22:00:00 20.6 32 Sudoeste 62 Oeste 0 976.9 0.9 32
2019-06-06 21:00:00 24.4 3 Nordeste 28 Noroeste 0 975.7 -1.7 22
2019-06-06 20:00:00 23.9 3 Sudeste 24 Sur 0 975.6 -3.4 25
2019-06-06 19:00:00 23.4 5 Sudeste 22 Sur 0 976 -4.6 29
2019-06-06 18:00:00 22.5 10 Sudeste 39 Sur 0 977.4 -4.3 31
2019-06-06 17:00:00 22.3 9 Sudeste 37 Sur 0 979 -4.6 32
2019-06-06 16:00:00 22 24 Sur 44 Sur 0 980.6 -4.2 32
2019-06-06 15:00:00 20.9 17 Sur 37 Sur 0 981.7 -4.3 34
2019-06-06 14:00:00 19.8 9 Sur 23 Sur 0 983.6 -3.5 38
2019-06-06 13:00:00 18.6 7 Sudeste 19 Este 0 984.8 -3.2 43
2019-06-06 12:00:00 16.6 0 Calma 12 Sudoeste 0 986 -3 54
2019-06-06 11:00:00 14.8 0 Calma 10 Nordeste 0 987.1 -2.4 70
2019-06-06 10:00:00 11.2 2 Noroeste 6 Noroeste 0 988 -1.6 92
2019-06-06 09:00:00 9.1 0 Calma 6 Este 0 989 -1 92
2019-06-06 08:00:00 8.3 2 Nordeste 5 Este 0 989.5 -0.8 92
2019-06-06 07:00:00 8.3 0 Calma 3 Nordeste 0 989.6 -0.8 91
2019-06-06 06:00:00 9 0 Calma 4 Este 0 990 -0.9 91
2019-06-06 05:00:00 9.2 0 Calma -- -- 0 990.3 -0.8 91
2019-06-06 04:00:00 9.1 0 Calma 3 Sudoeste 0 990.4 -1 91
2019-06-06 03:00:00 9.3 0 Calma 4 Sur 0 990.9 -0.3 90
2019-06-06 02:00:00 9.1 3 Sudoeste 7 Sur 0.1 991.1 0.1 88
2019-06-06 01:00:00 9.6 3 Sudoeste 9 Noroeste 0.5 991.4 0.7 85
2019-06-06 00:00:00 10.2 0 Calma 7 Nordeste 0 991.2 0.6 79
2019-06-05 23:00:00 10.9 5 Nordeste 7 Nordeste 0 991 0.8 69
2019-06-05 22:00:00 11.6 2 Sur 11 Noroeste 0 990.7 0.9 63
2019-06-05 21:00:00 12.4 5 Noroeste 17 Oeste 0 990.6 1.1 57
2019-06-05 20:00:00 13.1 8 Noroeste 23 Oeste 0 990.2 0.7 54
2019-06-05 19:00:00 13.1 17 Oeste 32 Noroeste 0 989.8 0.4 50
2019-06-05 18:00:00 14.3 10 Noroeste 26 Noroeste 0 989.5 0.4 55
2019-06-05 17:00:00 14 7 Norte 28 Noroeste 0 989.5 0.8 53
2019-06-05 16:00:00 14.6 16 Noroeste 41 Oeste 0 989.4 1.2 56
2019-06-05 15:00:00 13 23 Oeste 40 Oeste 0 989.1 1 61
2019-06-05 14:00:00 13.6 19 Oeste 41 Noroeste 0 988.7 1.4 65
2019-06-05 13:00:00 13.7 25 Oeste 41 Oeste 0.1 988.2 1.1 65
2019-06-05 12:00:00 11.6 13 Oeste 30 Noroeste 0.1 988.1 1.5 82
2019-06-05 11:00:00 11.1 9 Oeste 20 Oeste 0 987.3 0.8 90
2019-06-05 10:00:00 10.7 3 Noroeste 7 Noroeste 0.2 987.1 1.3 91
2019-06-05 09:00:00 10.3 0 Calma 5 Este 1.4 986.6 0.6 91
2019-06-05 08:00:00 10.2 0 Calma 11 Oeste 0.6 986.5 0 91
2019-06-05 07:00:00 10.1 4 Noroeste 17 Oeste 3.5 985.8 -0.8 91
2019-06-05 06:00:00 10 8 Oeste 18 Oeste 1.3 986 -1 91
2019-06-05 05:00:00 10.3 11 Oeste 14 Oeste 1.2 986.5 -0.6 91
2019-06-05 04:00:00 10.2 5 Oeste 11 Noroeste 0 986.6 -1.2 91
2019-06-05 03:00:00 10.8 4 Noroeste 12 Oeste 0.8 987 -1.1 91
2019-06-05 02:00:00 11.8 2 Nordeste 7 Noroeste 0.1 987.1 -1.2 91
2019-06-05 01:00:00 11.8 0 Calma 6 Nordeste 0.2 987.8 0 91
2019-06-05 00:00:00 12.1 0 Calma 6 Este 1.2 988.1 0.2 89
2019-06-04 23:00:00 12.1 0 Calma 6 Sur 0.1 988.3 0.5 88
2019-06-04 22:00:00 12.4 0 Calma 16 Oeste 1 987.8 0.6 82
2019-06-04 21:00:00 13.7 9 Oeste 18 Oeste 0 987.9 1.1 67
2019-06-04 20:00:00 14.5 5 Noroeste 22 Noroeste 0 987.8 1.1 63
2019-06-04 19:00:00 14.5 11 Noroeste 25 Noroeste 0 987.2 1.4 64
2019-06-04 18:00:00 15.2 9 Noroeste 22 Norte 0 986.8 1.9 66
2019-06-04 17:00:00 15.7 12 Oeste 32 Norte 0 986.7 2.5 68
2019-06-04 16:00:00 19.6 5 Noroeste 26 Norte 0 985.8 2.3 62
2019-06-04 15:00:00 20.2 5 Noroeste 18 Noroeste 0 984.9 1.6 58
2019-06-04 14:00:00 22.4 4 Norte 17 Norte 0 984.2 1 50
2019-06-04 13:00:00 23.1 6 Nordeste 38 Sudoeste 0 983.5 -0.1 48
2019-06-04 12:00:00 23.9 13 Sudoeste 45 Sudoeste 0 983.3 -0.5 40
2019-06-04 11:00:00 22.3 17 Sudoeste 38 Sudoeste 0 983.2 -0.8 43
2019-06-04 10:00:00 18.4 0 Calma 9 Este 0 983.6 -0.5 73
2019-06-04 09:00:00 13.8 0 Calma 6 Este 0 983.8 -0.4 92
2019-06-04 08:00:00 11.7 3 Oeste 7 Oeste 0 984 -0.1 92
2019-06-04 07:00:00 11.2 0 Calma 4 Noroeste 0 984.1 -0.4 92
2019-06-04 06:00:00 11.8 0 Calma 6 Sudoeste 0 984.2 -1.3 92
2019-06-04 05:00:00 12.2 0 Calma 5 Nordeste 0 984.1 -2.9 92
2019-06-04 04:00:00 12.6 0 Calma 3 Este 0 984.5 -3.5 91
2019-06-04 03:00:00 13.2 0 Calma 3 Este 0 985.5 -3.4 91
2019-06-04 02:00:00 13.7 0 Calma 3 Este 0 987 -2.2 89
2019-06-04 01:00:00 14.2 0 Calma 0 Calma 0 988 -1.2 86
2019-06-04 00:00:00 14.7 0 Calma 4 Nordeste 0 988.9 -0.1 84
2019-06-03 23:00:00 15.7 0 Calma 3 Nordeste 0 989.2 0.3 80
2019-06-03 22:00:00 16.2 0 Calma 6 Nordeste 0 989.2 0.6 76
2019-06-03 21:00:00 17.7 0 Calma 13 Noroeste 0 989 0.1 64
2019-06-03 20:00:00 19.9 5 Noroeste 14 Oeste 0 988.9 -0.5 58
2019-06-03 19:00:00 21.8 5 Noroeste 15 Noroeste 0 988.6 -1.2 54
2019-06-03 18:00:00 22.3 6 Noroeste 19 Noroeste 0 988.9 -1.7 53
2019-06-03 17:00:00 22.7 5 Noroeste 21 Oeste 0 989.4 -1.7 54
2019-06-03 16:00:00 23.2 6 Noroeste 17 Noroeste 0 989.8 -2.1 52
2019-06-03 15:00:00 22.3 3 Noroeste 20 Oeste 0 990.6 -1.5 54
2019-06-03 14:00:00 22.2 4 Noroeste 17 Noroeste 0 991.1 -1.5 51
2019-06-03 13:00:00 21.2 0 Calma 11 Este 0 991.9 -1.4 52
2019-06-03 12:00:00 20.6 3 Este 14 Nordeste 0 992.1 -1 51
2019-06-03 11:00:00 17.8 2 Sudeste 6 Sudeste 0 992.6 -0.7 58
2019-06-03 10:00:00 16 0 Calma 6 Este 0 993.3 0.9 65
2019-06-03 09:00:00 13.7 0 Calma 18 Oeste 0 993.1 0.5 80
2019-06-03 08:00:00 11.7 5 Sudoeste 15 Oeste 0 993.3 0.4 87
2019-06-03 07:00:00 11.1 0 Calma 8 Nordeste 0 992.4 -0.6 84
2019-06-03 06:00:00 11.7 0 Calma 2 Nordeste 0 992.6 -0.5 82
2019-06-03 05:00:00 11.9 0 Calma 3 Este 0 992.9 -0.6 80
2019-06-03 04:00:00 12.3 0 Calma 4 Noroeste 0 993 -0.5 77
2019-06-03 03:00:00 12.6 4 Oeste 5 Oeste 0 993.1 -0.8 73
2019-06-03 02:00:00 13.5 0 Calma 4 Nordeste 0 993.5 0 67
2019-06-03 01:00:00 14 0 Calma 5 Noroeste 0 993.5 0.3 62
2019-06-03 00:00:00 14.3 3 Noroeste 5 Noroeste 0 993.9 0.8 57
2019-06-02 23:00:00 15.5 0 Calma 4 Oeste 0 993.5 0.7 52
2019-06-02 22:00:00 17.1 4 Norte 8 Este 0 993.2 1 44
2019-06-02 21:00:00 18.4 4 Oeste 17 Oeste 0 993.1 1 41
2019-06-02 20:00:00 20.2 6 Oeste 21 Noroeste 0 992.8 1 39
2019-06-02 19:00:00 22.3 8 Noroeste 18 Noroeste 0 992.2 0.9 36
2019-06-02 18:00:00 23.4 3 Noroeste 12 Oeste 0 992.1 1.4 37
2019-06-02 17:00:00 23 7 Noroeste 19 Oeste 0 991.8 1.4 36
2019-06-02 16:00:00 23.5 9 Oeste 28 Noroeste 0 991.3 0.5 35
2019-06-02 15:00:00 27.2 5 Noroeste 25 Nordeste 0 990.7 -0.6 39
2019-06-02 14:00:00 27.5 10 Nordeste 24 Nordeste 0 990.4 -1.3 36
2019-06-02 13:00:00 28 6 Nordeste 15 Nordeste 0 990.8 -1.3 35
2019-06-02 12:00:00 25.8 5 Nordeste 12 Este 0 991.3 -1 40
2019-06-02 11:00:00 22.4 2 Norte 5 Norte 0 991.7 -0.8 50
2019-06-02 10:00:00 18.8 0 Calma 5 Noroeste 0 992.1 -0.6 73
2019-06-02 09:00:00 16.1 0 Calma 4 Noroeste 0 992.3 -0.1 83
2019-06-02 08:00:00 14.8 0 Calma 5 Oeste 0 992.5 0 89
2019-06-02 07:00:00 13.3 0 Calma 6 Oeste 0 992.7 0.1 89
2019-06-02 06:00:00 13.9 2 Sudoeste 5 Oeste 0 992.4 -0.3 87
2019-06-02 05:00:00 14.6 0 Calma 4 Oeste 0 992.5 0 85
2019-06-02 04:00:00 15.5 0 Calma 0 Calma 0 992.6 -0.1 80
2019-06-02 03:00:00 16.3 0 Calma 0 Calma 0 992.7 -0.3 75
2019-06-02 02:00:00 17.4 0 Calma 4 Este 0 992.5 0 70
2019-06-02 01:00:00 17.9 5 Oeste 7 Noroeste 0 992.7 0.9 64
2019-06-02 00:00:00 19.5 0 Calma 7 Este 0 993 1.5 55
2019-06-01 23:00:00 21.5 0 Calma 8 Nordeste 0 992.5 1.4 44
2019-06-01 22:00:00 23.5 0 Calma 6 Oeste 0 991.8 1.1 39
2019-06-01 21:00:00 25.4 0 Calma 14 Oeste 0 991.5 0.7 36
2019-06-01 20:00:00 28 6 Oeste 14 Noroeste 0 991.1 0.1 35
2019-06-01 19:00:00 29.7 4 Sudoeste 14 Nordeste 0 990.7 -0.8 34
2019-06-01 18:00:00 30.8 4 Nordeste 20 Nordeste 0 990.8 -1.3 30
2019-06-01 17:00:00 32.4 6 Nordeste 13 Nordeste 0 991 -1.6 27
2019-06-01 16:00:00 31.5 5 Nordeste 17 Este 0 991.5 -2 27
2019-06-01 15:00:00 31.2 6 Nordeste 16 Este 0 992.1 -1.8 29
2019-06-01 14:00:00 30.1 6 Este 16 Este 0 992.6 -1.5 32
2019-06-01 13:00:00 28.7 5 Este 15 Sur 0 993.5 -0.7 35
2019-06-01 12:00:00 27 8 Sudeste 19 Este 0 993.9 -0.7 37
2019-06-01 11:00:00 24.8 5 Este 12 Este 0 994.1 -0.7 44
2019-06-01 10:00:00 20.9 6 Este 10 Este 0 994.2 -0.3 55
2019-06-01 09:00:00 16.5 0 Calma 4 Noroeste 0 994.6 0.3 85
2019-06-01 08:00:00 13.6 0 Calma 5 Este 0 994.8 0.5 91
2019-06-01 07:00:00 13.1 0 Calma 4 Oeste 0 994.5 -0.1 91
2019-06-01 06:00:00 13.2 0 Calma 0 Calma 0 994.3 -0.6 90
2019-06-01 05:00:00 13.8 0 Calma 3 Oeste 0 994.3 -0.9 89
2019-06-01 04:00:00 14.4 0 Calma 2 Nordeste 0 994.6 -0.8 87
2019-06-01 03:00:00 15 0 Calma 4 Noroeste 0 994.9 -0.8 84
2019-06-01 02:00:00 15.8 0 Calma -- -- 0 995.2 -0.4 81
2019-06-01 01:00:00 17 0 Calma 3 Noroeste 0 995.4 0.5 77
2019-06-01 00:00:00 18.3 0 Calma 4 Oeste 0 995.7 0.8 70
2019-05-31 23:00:00 20 2 Oeste 4 Oeste 0 995.6 0.7 60
2019-05-31 22:00:00 22.5 0 Calma 6 Oeste 0 994.9 -0.1 49
2019-05-31 21:00:00 26 3 Oeste 11 Nordeste 0 994.9 -0.2 40
2019-05-31 20:00:00 27 2 Nordeste 14 Norte 0 994.9 -0.5 36
2019-05-31 19:00:00 27.5 5 Nordeste 18 Nordeste 0 995 -0.9 36
2019-05-31 18:00:00 28.3 6 Nordeste 19 Nordeste 0 995.1 -1 36
2019-05-31 17:00:00 28.6 8 Norte 19 Nordeste 0 995.4 -1.3 36
2019-05-31 16:00:00 29 6 Nordeste 17 Nordeste 0 995.9 -1.2 35
2019-05-31 15:00:00 28.7 6 Este 14 Este 0 996.1 -1.6 29
2019-05-31 14:00:00 27.7 7 Nordeste 17 Este 0 996.7 -1.4 33
2019-05-31 13:00:00 25.9 5 Nordeste 10 Nordeste 0 997.1 -1.5 36
2019-05-31 12:00:00 23.3 3 Nordeste 8 Este 0 997.7 -1.1 47
2019-05-31 11:00:00 19.4 3 Oeste 7 Oeste 0 998.1 -1.1 65
2019-05-31 10:00:00 16.2 0 Calma 6 Noroeste 0 998.6 -0.5 76
2019-05-31 09:00:00 13.1 0 Calma 0 Calma 0 998.8 -0.3 89
2019-05-31 08:00:00 11 0 Calma 0 Calma 0 999.2 0 91
2019-05-31 07:00:00 10 0 Calma 3 Oeste 0 999.1 -0.4 91
2019-05-31 06:00:00 10.6 0 Calma 2 Oeste 0 999.1 -0.9 90
2019-05-31 05:00:00 11.3 0 Calma -- -- 0 999.2 -1.2 88
2019-05-31 04:00:00 11.6 0 Calma 0 Calma 0 999.5 -1.4 87
2019-05-31 03:00:00 12.2 0 Calma -- -- 0 1000 -0.8 85
2019-05-31 02:00:00 13.2 0 Calma 0 Calma 0 1000.4 -0.2 82
2019-05-31 01:00:00 14.3 0 Calma 5 Oeste 0 1000.9 1.1 76
2019-05-31 00:00:00 15.1 3 Noroeste 5 Noroeste 0 1000.8 1.2 69
2019-05-30 23:00:00 16.6 3 Oeste 6 Noroeste 0 1000.6 0.9 62
2019-05-30 22:00:00 18.3 3 Oeste 7 Oeste 0 999.8 0.1 52
2019-05-30 21:00:00 20.4 3 Sudoeste 12 Oeste 0 999.6 0 46
2019-05-30 20:00:00 22.4 3 Norte 9 Noroeste 0 999.7 0.1 40
2019-05-30 19:00:00 23.9 4 Noroeste 12 Noroeste 0 999.7 -0.3 38
2019-05-30 18:00:00 24.4 5 Nordeste 17 Norte 0 999.6 -0.6 39
2019-05-30 17:00:00 24.6 8 Nordeste 18 Nordeste 0 999.6 -1.1 38
2019-05-30 16:00:00 24.9 3 Este 11 Este 0 1000 -1.1 36
2019-05-30 15:00:00 23.9 5 Nordeste 13 Este 0 1000.2 -1.3 37
2019-05-30 14:00:00 23.4 5 Sur 17 Este 0 1000.7 -1.2 43
2019-05-30 13:00:00 21.8 5 Nordeste 12 Norte 0 1001.1 -1.1 43
2019-05-30 12:00:00 19.1 3 Nordeste 9 Este 0 1001.5 -1.1 56
2019-05-30 11:00:00 15.8 2 Oeste 7 Oeste 0 1001.9 -0.3 90
2019-05-30 10:00:00 11.2 0 Calma 5 Sudoeste 0 1002.2 0.3 93
2019-05-30 09:00:00 9.1 0 Calma 6 Sudoeste 0 1002.6 0.8 93
2019-05-30 08:00:00 8.3 0 Calma 4 Nordeste 0 1002.2 0.6 93
2019-05-30 07:00:00 8.3 0 Calma 3 Sudoeste 0 1001.9 0 93
2019-05-30 06:00:00 8.5 0 Calma 3 Este 0 1001.8 -0.5 92
2019-05-30 05:00:00 8.4 0 Calma 2 Oeste 0 1001.6 -1.1 92
2019-05-30 04:00:00 8.8 0 Calma 2 Sudoeste 0 1001.9 -0.8 91
2019-05-30 03:00:00 9.1 0 Calma 0 Calma 0 1002.3 -0.5 91
2019-05-30 02:00:00 9.9 0 Calma 2 Nordeste 0 1002.7 0.2 89
2019-05-30 01:00:00 10.4 0 Calma 4 Este 0 1002.7 0.6 87
2019-05-30 00:00:00 11.2 0 Calma 3 Oeste 0 1002.8 1 83
2019-05-29 23:00:00 12.3 0 Calma 5 Sudoeste 0 1002.5 0.8 77
2019-05-29 22:00:00 13.4 0 Calma 6 Oeste 0 1002.1 0.6 70
2019-05-29 21:00:00 15.9 3 Oeste 11 Oeste 0 1001.8 0.3 60
2019-05-29 20:00:00 17.2 6 Oeste 13 Noroeste 0 1001.7 -0.2 55
2019-05-29 19:00:00 18.9 8 Noroeste 15 Noroeste 0 1001.5 -0.2 54
2019-05-29 18:00:00 19 9 Noroeste 16 Noroeste 0 1001.5 -0.5 57
2019-05-29 17:00:00 17.4 6 Oeste 22 Oeste 0 1001.9 -0.2 61
2019-05-29 16:00:00 16.7 13 Oeste 26 Oeste 0 1001.7 -0.5 67
2019-05-29 15:00:00 16.2 13 Oeste 22 Sudoeste 0 1002 -0.2 68
2019-05-29 14:00:00 16.5 6 Noroeste 15 Noroeste 0 1002.1 0.1 62
2019-05-29 13:00:00 14.7 0 Calma 11 Este 0 1002.2 0.3 76
2019-05-29 12:00:00 13.4 3 Este 7 Sudoeste 0 1002.2 0.7 89
2019-05-29 11:00:00 12.2 2 Sudoeste 7 Oeste 0.3 1002 1.3 91
2019-05-29 10:00:00 11.4 3 Oeste 6 Sudoeste 0.2 1001.9 1.7 91
2019-05-29 09:00:00 10.7 0 Calma 14 Oeste 0.5 1001.5 1.6 91
2019-05-29 08:00:00 10.6 7 Oeste 12 Sudoeste 1 1000.7 0.9 90
2019-05-29 07:00:00 10.6 4 Oeste 18 Oeste 0.2 1000.2 0.3 87
2019-05-29 06:00:00 11.1 11 Oeste 17 Oeste 0 999.9 -0.2 80
2019-05-29 05:00:00 11.6 5 Oeste 13 Oeste 0 999.8 -0.4 77
2019-05-29 04:00:00 11.6 6 Oeste 13 Oeste 0 999.9 -0.2 77
2019-05-29 03:00:00 11.5 4 Sudoeste 10 Sudoeste 0 1000.1 0.2 77
2019-05-29 02:00:00 11.8 5 Oeste 10 Sudoeste 0 1000.2 0.2 76
2019-05-29 01:00:00 11.7 6 Oeste 10 Sudoeste 0 1000.1 0.7 75
2019-05-29 00:00:00 11.5 7 Oeste 19 Oeste 0 999.9 1 73
2019-05-28 23:00:00 11.7 7 Oeste 16 Oeste 0 1000 1.5 71
2019-05-28 22:00:00 11.7 9 Oeste 17 Noroeste 0 999.4 1.4 68
2019-05-28 21:00:00 13.3 6 Noroeste 30 Norte 0 998.9 1.2 65
2019-05-28 20:00:00 13.3 10 Noroeste 37 Noroeste 0 998.5 0.9 62
2019-05-28 19:00:00 14.8 20 Noroeste 37 Oeste 0 998 0.5 53
2019-05-28 18:00:00 15.4 13 Noroeste 31 Noroeste 0 997.7 0.6 59
2019-05-28 17:00:00 14.4 10 Noroeste 30 Norte 0 997.6 0.5 67
2019-05-28 16:00:00 15.2 10 Noroeste 37 Noroeste 0 997.5 0.8 62
2019-05-28 15:00:00 14.3 13 Oeste 37 Oeste 0 997.1 0.5 67
2019-05-28 14:00:00 12.9 6 Noroeste 23 Noroeste 0 997.1 0.7 76
2019-05-28 13:00:00 13 5 Noroeste 18 Oeste 0 996.7 0.4 77
2019-05-28 12:00:00 13 10 Oeste 19 Oeste 0 996.6 0.7 87
2019-05-28 11:00:00 11.3 6 Sudoeste 16 Oeste 1.3 996.4 0.9 92
2019-05-28 10:00:00 10.4 9 Sudoeste 15 Sudoeste 0.7 996.3 1.3 92
2019-05-28 09:00:00 10.3 0 Calma 5 Oeste 0 995.9 1 92
2019-05-28 08:00:00 9.9 0 Calma 4 Este 0 995.5 0.8 92
2019-05-28 07:00:00 9.7 3 Este 6 Nordeste 0 995 0 92
2019-05-28 06:00:00 9.9 0 Calma 4 Nordeste 0 994.9 -0.2 91
2019-05-28 05:00:00 10 0 Calma 4 Nordeste 0 994.7 -0.4 90
2019-05-28 04:00:00 10.1 2 Nordeste 5 Nordeste 0 995 -0.4 87
2019-05-28 03:00:00 10.6 0 Calma 8 Oeste 0 995.1 -0.3 84
2019-05-28 02:00:00 10.7 3 Noroeste 10 Oeste 0 995.1 -0.2 81
2019-05-28 01:00:00 10.7 5 Oeste 14 Noroeste 0 995.4 0.7 83
2019-05-28 00:00:00 11.2 5 Noroeste 15 Noroeste 0 995.4 0.8 84
2019-05-27 23:00:00 11.9 6 Oeste 15 Oeste 0 995.3 0.9 85
2019-05-27 22:00:00 12.4 3 Noroeste 11 Noroeste 0 994.7 1.1 85
2019-05-27 21:00:00 12.7 4 Noroeste 17 Noroeste 0 994.6 1.2 85
2019-05-27 20:00:00 12.7 8 Noroeste 23 Noroeste 0 994.4 1.1 87
2019-05-27 19:00:00 13.5 8 Noroeste 26 Norte 0.1 993.6 0.3 87
2019-05-27 18:00:00 13.7 8 Norte 21 Norte 0 993.4 -0.1 87
2019-05-27 17:00:00 14.1 8 Noroeste 23 Norte 0.1 993.3 -0.4 87
2019-05-27 16:00:00 15 3 Noroeste 14 Oeste 0.2 993.3 -0.5 90
2019-05-27 15:00:00 14.3 0 Calma 5 Nordeste 0.3 993.5 -0.3 89
2019-05-27 14:00:00 14.1 3 Oeste 6 Oeste 0.1 993.7 0.1 86
2019-05-27 13:00:00 14.3 0 Calma 5 Oeste 0.1 993.8 0 83
2019-05-27 12:00:00 13.8 2 Oeste 7 Oeste 0 993.8 0 81
2019-05-27 11:00:00 13.1 0 Calma 6 Nordeste 0 993.6 -0.4 83
2019-05-27 10:00:00 12.3 2 Este 4 Sudeste 0 993.8 -0.2 91
2019-05-27 09:00:00 12.1 0 Calma 5 Este 0 993.8 -0.1 91
2019-05-27 08:00:00 11.6 0 Calma 2 Noroeste 0 994 -0.4 91
2019-05-27 07:00:00 11.7 0 Calma 3 Nordeste 0 994 -0.5 91
2019-05-27 06:00:00 11.7 0 Calma 6 Oeste 0 993.9 -0.9 91
2019-05-27 05:00:00 11.9 0 Calma 5 Sudoeste 0 994.4 -0.8 91
2019-05-27 04:00:00 12.1 0 Calma 2 Este 0 994.5 -1.4 91
2019-05-27 03:00:00 11.9 0 Calma 5 Este 0 994.8 -1.7 91
2019-05-27 02:00:00 12.3 2 Este 5 Este 0 995.2 -1.4 89
2019-05-27 01:00:00 12.2 2 Este 4 Este 0 995.9 -0.5 89
2019-05-27 00:00:00 12.5 0 Calma 3 Nordeste 0 996.5 0 87
2019-05-26 23:00:00 12.9 0 Calma 4 Oeste 0 996.6 0 84
2019-05-26 22:00:00 13 0 Calma 11 Noroeste 0 996.4 -0.4 82
2019-05-26 21:00:00 13.4 3 Noroeste 13 Noroeste 0 996.5 -0.6 80
2019-05-26 20:00:00 13.8 4 Noroeste 13 Noroeste 0 996.6 -0.9 77
2019-05-26 19:00:00 14.5 3 Norte 17 Norte 0 996.8 -0.8 73
2019-05-26 18:00:00 14.7 4 Noroeste 19 Norte 0 997.1 -0.7 75
2019-05-26 17:00:00 14.5 4 Noroeste 17 Noroeste 0 997.5 -0.5 75
2019-05-26 16:00:00 15 6 Noroeste 18 Norte 0 997.6 -0.7 73
2019-05-26 15:00:00 15.1 6 Noroeste 17 Norte 0.1 997.8 -0.7 70
2019-05-26 14:00:00 14.9 6 Noroeste 15 Noroeste 0 998 -0.6 76
2019-05-26 13:00:00 14.7 2 Noroeste 11 Oeste 0 998.3 -0.3 75
2019-05-26 12:00:00 13.9 4 Oeste 11 Noroeste 0 998.5 -0.2 79
2019-05-26 11:00:00 13.7 5 Oeste 10 Oeste 0 998.6 0 86
2019-05-26 10:00:00 12.5 0 Calma 4 Noroeste 0 998.6 0.1 91
2019-05-26 09:00:00 11.5 0 Calma 3 Sudoeste 0.2 998.7 0.2 91
2019-05-26 08:00:00 11.3 0 Calma 0 Calma 0.7 998.6 -0.1 91
2019-05-26 07:00:00 11.2 0 Calma -- -- 0.4 998.5 -0.6 90
2019-05-26 06:00:00 11.4 0 Calma 4 Este 0 998.5 -1 88
2019-05-26 05:00:00 11.3 0 Calma 11 Oeste 0 998.7 -1 87
2019-05-26 04:00:00 11.4 4 Oeste 11 Sudoeste 0 999.1 -0.8 85
2019-05-26 03:00:00 11.6 6 Sudoeste 12 Sudoeste 0 999.5 -0.7 83
2019-05-26 02:00:00 11.7 5 Oeste 9 Oeste 0 999.7 -0.8 80
2019-05-26 01:00:00 11.9 4 Oeste 7 Sudoeste 0 999.9 0.1 77
2019-05-26 00:00:00 12.2 4 Oeste 14 Oeste 0 1000.2 0.9 73
2019-05-25 23:00:00 12.3 4 Noroeste 16 Noroeste 0 1000.5 1.6 73
2019-05-25 22:00:00 12.6 4 Norte 14 Norte 0 999.8 0.7 71
2019-05-25 21:00:00 13.1 3 Noroeste 15 Noroeste 0 999.3 0.3 69
2019-05-25 20:00:00 13.8 5 Noroeste 17 Noroeste 0 998.9 -0.1 70
2019-05-25 19:00:00 14.8 8 Noroeste 19 Noroeste 0 999.1 0.1 68
2019-05-25 18:00:00 14.5 7 Norte 21 Norte 0 999 -0.4 66
2019-05-25 17:00:00 15.1 8 Norte 23 Noroeste 0 999 -0.5 67
2019-05-25 16:00:00 15.1 7 Noroeste 23 Oeste 0 999 -0.6 66
2019-05-25 15:00:00 14.7 14 Oeste 30 Sudoeste 0 999.4 -0.2 73
2019-05-25 14:00:00 15 7 Noroeste 26 Noroeste 0 999.5 0.1 66
2019-05-25 13:00:00 15.1 10 Norte 27 Noroeste 0 999.6 0.6 73
2019-05-25 12:00:00 13.3 7 Noroeste 17 Oeste 0 999.6 0.7 91
2019-05-25 11:00:00 12.3 4 Oeste 8 Sudoeste 0.2 999.4 0.9 91
2019-05-25 10:00:00 11.8 0 Calma 10 Oeste 0.2 999 0.9 91
2019-05-25 09:00:00 11 5 Oeste 12 Oeste 1.2 998.9 1.2 91
2019-05-25 08:00:00 11 0 Calma 13 Oeste 0.4 998.5 1 87
2019-05-25 07:00:00 11.1 9 Oeste 17 Oeste 0 998.1 0.4 84
2019-05-25 06:00:00 11.7 6 Noroeste 14 Oeste 0 997.7 0 78
2019-05-25 05:00:00 11.6 7 Oeste 13 Oeste 0 997.5 -0.5 79
2019-05-25 04:00:00 11.7 5 Oeste 17 Oeste 0 997.7 -0.2 78
2019-05-25 03:00:00 11.8 11 Oeste 17 Noroeste 0 997.7 -0.3 78
2019-05-25 02:00:00 11.9 7 Noroeste 18 Oeste 0 998 0.2 84
2019-05-25 01:00:00 12.3 9 Oeste 14 Oeste 0 997.9 0.8 81
2019-05-25 00:00:00 12.5 8 Oeste 22 Noroeste 0 998 1.4 80
2019-05-24 23:00:00 12.9 6 Noroeste 24 Oeste 0 997.8 1.3 77
2019-05-24 22:00:00 13 7 Noroeste 23 Oeste 0 997.1 0.7 77
2019-05-24 21:00:00 13.1 15 Oeste 24 Noroeste 0 996.6 0.2 74
2019-05-24 20:00:00 13.2 13 Oeste 24 Oeste 0 996.5 0.1 75
2019-05-24 19:00:00 13.5 14 Oeste 30 Noroeste 0 996.4 0 73
2019-05-24 18:00:00 13.6 12 Noroeste 32 Oeste 0 996.4 0 72
2019-05-24 17:00:00 14 18 Oeste 29 Noroeste 0 996.4 -0.2 75
2019-05-24 16:00:00 13.9 15 Oeste 33 Oeste 0 996.4 -0.3 76
2019-05-24 15:00:00 13.9 14 Oeste 28 Noroeste 0 996.4 -0.1 79
2019-05-24 14:00:00 13.6 7 Oeste 17 Oeste 0.1 996.6 0.2 88
2019-05-24 13:00:00 12.2 4 Oeste 15 Oeste 1.8 996.7 0.3 91
2019-05-24 12:00:00 11.7 9 Oeste 13 Sudoeste 1.1 996.5 0.6 91
2019-05-24 11:00:00 11.4 8 Oeste 18 Oeste 1.3 996.4 1.1 91
2019-05-24 10:00:00 11.5 9 Oeste 24 Oeste 0 996.4 1.5 88
2019-05-24 09:00:00 11.6 13 Oeste 23 Oeste 0 995.9 1.3 84
2019-05-24 08:00:00 11.8 15 Noroeste 32 Noroeste 0 995.3 0.5 78
2019-05-24 07:00:00 11.6 7 Noroeste 23 Oeste 0 994.9 -0.2 78
2019-05-24 06:00:00 11.3 12 Noroeste 21 Noroeste 0 994.6 -0.6 81
2019-05-24 05:00:00 11.7 9 Noroeste 22 Oeste 0 994.8 -0.5 84
2019-05-24 04:00:00 11.6 13 Oeste 25 Noroeste 0.1 995.1 -0.3 89
2019-05-24 03:00:00 12.4 12 Oeste 24 Oeste 0 995.2 -0.2 84
2019-05-24 02:00:00 13 8 Oeste 15 Oeste 0 995.3 -0.3 82
2019-05-24 01:00:00 13.1 5 Noroeste 19 Noroeste 0 995.4 0 83
2019-05-24 00:00:00 13.2 3 Noroeste 8 Noroeste 0 995.4 0.2 84
2019-05-23 23:00:00 13.6 0 Calma 11 Noroeste 0 995.6 0.9 85
2019-05-23 22:00:00 13.8 0 Calma 5 Sudoeste 0 995.4 1.2 86
2019-05-23 21:00:00 14.3 0 Calma 20 Noroeste 1.4 995.2 1.5 78
2019-05-23 20:00:00 15.5 8 Noroeste 28 Oeste 0 994.7 1.6 67
2019-05-23 19:00:00 16.7 10 Noroeste 25 Norte 0 994.2 1 63
2019-05-23 18:00:00 18 8 Norte 26 Noroeste 0 993.7 0.7 57
2019-05-23 17:00:00 19.8 5 Norte 17 Noroeste 0 993.1 0 54
2019-05-23 16:00:00 20.6 5 Noroeste 14 Oeste 0 993.2 0 52
2019-05-23 15:00:00 19.8 4 Norte 14 Norte 0 993 -0.1 52
2019-05-23 14:00:00 19.6 7 Norte 17 Noroeste 0 993.1 0 51
2019-05-23 13:00:00 20 8 Oeste 18 Oeste 0 993.2 0.2 56
2019-05-23 12:00:00 19.7 0 Calma 8 Este 0 993.1 0.1 54
2019-05-23 11:00:00 17.7 0 Calma 5 Oeste 0 993.1 0.2 68
2019-05-23 10:00:00 14.3 0 Calma 5 Este 0 993 0.5 86
2019-05-23 09:00:00 11.9 0 Calma 4 Oeste 0 993 0.5 91
2019-05-23 08:00:00 10.8 0 Calma 4 Oeste 0 992.9 0.5 91
2019-05-23 07:00:00 10.5 0 Calma 3 Noroeste 0 992.5 -0.1 91
2019-05-23 06:00:00 10.7 2 Oeste 5 Oeste 0 992.5 -0.2 91
2019-05-23 05:00:00 10.9 3 Oeste 4 Oeste 0 992.4 -0.5 91
2019-05-23 04:00:00 11.6 0 Calma 3 Oeste 0 992.6 -0.4 90
2019-05-23 03:00:00 11.8 2 Oeste 4 Oeste 0 992.7 -0.4 88
2019-05-23 02:00:00 12.7 2 Oeste 4 Oeste 0 992.9 -0.1 86
2019-05-23 01:00:00 13.8 0 Calma 4 Oeste 0 993 0.6 83
2019-05-23 00:00:00 14.7 0 Calma 4 Oeste 0 993.1 1 78
2019-05-22 23:00:00 15.6 2 Sudoeste 5 Oeste 0 993 1.4 72
2019-05-22 22:00:00 17.1 0 Calma 8 Noroeste 0 992.4 1 64
2019-05-22 21:00:00 18.8 0 Calma 10 Sudoeste 0 992.1 0.6 57
2019-05-22 20:00:00 20.7 4 Norte 14 Nordeste 0 991.6 0.1 48
2019-05-22 19:00:00 22 6 Nordeste 16 Nordeste 0 991.4 -0.5 46
2019-05-22 18:00:00 22.4 8 Nordeste 18 Nordeste 0 991.5 -1.1 43
2019-05-22 17:00:00 22.9 7 Nordeste 19 Nordeste 0 991.5 -1.6 42
2019-05-22 16:00:00 23.2 8 Nordeste 16 Nordeste 0 991.9 -1.6 37
2019-05-22 15:00:00 22.5 5 Noroeste 12 Norte 0 992.6 -1.5 33
2019-05-22 14:00:00 20.7 5 Nordeste 17 Nordeste 0 993.1 -1.5 34
2019-05-22 13:00:00 20.3 7 Nordeste 13 Este 0 993.5 -1.5 42
2019-05-22 12:00:00 17.8 5 Este 10 Norte 0 994.1 -1 53
2019-05-22 11:00:00 13 3 Noroeste 6 Noroeste 0 994.6 -0.7 89
2019-05-22 10:00:00 9.7 0 Calma 5 Oeste 0 995 -0.3 92
2019-05-22 09:00:00 7.5 0 Calma 5 Sudoeste 0 995.1 -0.1 92
2019-05-22 08:00:00 6.9 0 Calma 4 Oeste 0 995.3 0.1 92
2019-05-22 07:00:00 6.8 0 Calma 3 Sur 0 995.3 0 92
2019-05-22 06:00:00 6.8 0 Calma 4 Oeste 0 995.2 0 91
2019-05-22 05:00:00 6.7 0 Calma 3 Oeste 0 995.2 -0.2 91
2019-05-22 04:00:00 6.9 0 Calma 3 Noroeste 0 995.3 0 90
2019-05-22 03:00:00 7.7 0 Calma 3 Noroeste 0 995.2 -0.3 89
2019-05-22 02:00:00 8.2 0 Calma 4 Sudoeste 0 995.4 0 88
2019-05-22 01:00:00 9.1 0 Calma 4 Oeste 0 995.3 0.7 85
2019-05-22 00:00:00 9.8 0 Calma 4 Noroeste 0 995.5 1.2 81
2019-05-21 23:00:00 10.8 0 Calma 10 Oeste 0 995.4 1.8 76
2019-05-21 22:00:00 11.8 6 Oeste 12 Oeste 0 994.6 1.2 66
2019-05-21 21:00:00 14.6 0 Calma 17 Noroeste 0 994.3 0.9 57
2019-05-21 20:00:00 16.4 7 Oeste 14 Oeste 0 993.6 0.3 53
2019-05-21 19:00:00 17.4 5 Noroeste 18 Nordeste 0 993.4 0.1 51
2019-05-21 18:00:00 18 4 Nordeste 18 Nordeste 0 993.4 0.2 51
2019-05-21 17:00:00 17.5 8 Norte 24 Norte 0 993.3 -0.1 48
2019-05-21 16:00:00 18.6 6 Norte 21 Nordeste 0 993.3 -0.4 49
2019-05-21 15:00:00 18.3 5 Norte 17 Norte 0 993.2 -0.8 45
2019-05-21 14:00:00 18.2 4 Nordeste 13 Noroeste 0 993.4 -0.6 47
2019-05-21 13:00:00 16.3 3 Nordeste 11 Sudeste 0 993.7 -0.5 50
2019-05-21 12:00:00 15.2 0 Calma 11 Oeste 0 994 0.2 70
2019-05-21 11:00:00 11 3 Oeste 8 Noroeste 0 994 0.5 93
2019-05-21 10:00:00 8.8 3 Sudoeste 5 Sudoeste 0 994.2 1.2 93
2019-05-21 09:00:00 8.2 3 Oeste 5 Oeste 0 993.8 1.3 93
2019-05-21 08:00:00 7.4 0 Calma 4 Noroeste 0 993.5 1.2 93
2019-05-21 07:00:00 7 0 Calma 3 Este 0 993 0.8 92
2019-05-21 06:00:00 7.2 0 Calma 3 Sudoeste 0 992.5 0.2 92
2019-05-21 05:00:00 6.9 0 Calma 3 Oeste 0 992.3 -0.3 92
2019-05-21 04:00:00 7.1 2 Oeste 4 Oeste 0 992.2 -0.5 91
2019-05-21 03:00:00 7.7 0 Calma 3 Oeste 0 992.3 -0.3 91
2019-05-21 02:00:00 8.5 0 Calma 3 Oeste 0 992.6 0.1 90
2019-05-21 01:00:00 9 3 Oeste 8 Oeste 0 992.7 1 89
2019-05-21 00:00:00 9.5 4 Oeste 6 Oeste 0 992.6 1.5 86